sensor_id;sensor_type;location;lat;lon;timestamp;temperature;humidity
22996;DHT22;11664;49.774;8.650;2023-07-13T00:02:33;19.90;99.90
22996;DHT22;11664;49.774;8.650;2023-07-13T00:04:58;19.80;99.90
22996;DHT22;11664;49.774;8.650;2023-07-13T00:07:24;19.90;99.90
22996;DHT22;11664;49.774;8.650;2023-07-13T00:09:52;20.00;99.90
22996;DHT22;11664;49.774;8.650;2023-07-13T00:12:30;19.90;99.90
22996;DHT22;11664;49.774;8.650;2023-07-13T00:15:11;19.80;99.90
22996;DHT22;11664;49.774;8.650;2023-07-13T00:17:43;19.70;99.90
22996;DHT22;11664;49.774;8.650;2023-07-13T00:20:18;19.60;99.90
22996;DHT22;11664;49.774;8.650;2023-07-13T00:22:58;19.60;99.90
22996;DHT22;11664;49.774;8.650;2023-07-13T00:25:24;19.60;99.90
22996;DHT22;11664;49.774;8.650;2023-07-13T00:27:51;19.60;99.90
22996;DHT22;11664;49.774;8.650;2023-07-13T00:30:17;19.60;99.90
22996;DHT22;11664;49.774;8.650;2023-07-13T00:32:43;19.60;99.90
22996;DHT22;11664;49.774;8.650;2023-07-13T00:35:15;19.50;99.90
22996;DHT22;11664;49.774;8.650;2023-07-13T00:37:41;19.40;99.90
22996;DHT22;11664;49.774;8.650;2023-07-13T00:40:16;19.20;99.90
22996;DHT22;11664;49.774;8.650;2023-07-13T00:42:45;19.10;99.90
22996;DHT22;11664;49.774;8.650;2023-07-13T00:47:36;18.90;99.90
22996;DHT22;11664;49.774;8.650;2023-07-13T00:50:14;18.70;99.90
22996;DHT22;11664;49.774;8.650;2023-07-13T00:52:45;18.50;99.90
22996;DHT22;11664;49.774;8.650;2023-07-13T00:55:12;18.40;99.90
22996;DHT22;11664;49.774;8.650;2023-07-13T00:57:39;18.30;99.90
22996;DHT22;11664;49.774;8.650;2023-07-13T01:00:12;18.30;99.90
22996;DHT22;11664;49.774;8.650;2023-07-13T01:03:09;18.30;99.90
22996;DHT22;11664;49.774;8.650;2023-07-13T01:05:41;18.30;99.90
22996;DHT22;11664;49.774;8.650;2023-07-13T01:08:07;18.10;99.90
22996;DHT22;11664;49.774;8.650;2023-07-13T01:10:35;18.00;99.90
22996;DHT22;11664;49.774;8.650;2023-07-13T01:13:10;18.00;99.90
22996;DHT22;11664;49.774;8.650;2023-07-13T01:15:46;18.10;99.90
22996;DHT22;11664;49.774;8.650;2023-07-13T01:18:23;18.10;99.90
22996;DHT22;11664;49.774;8.650;2023-07-13T01:21:04;18.10;99.90
22996;DHT22;11664;49.774;8.650;2023-07-13T01:23:36;18.00;99.90
22996;DHT22;11664;49.774;8.650;2023-07-13T01:26:07;18.10;99.90
22996;DHT22;11664;49.774;8.650;2023-07-13T01:28:33;18.00;99.90
22996;DHT22;11664;49.774;8.650;2023-07-13T01:31:02;17.90;99.90
22996;DHT22;11664;49.774;8.650;2023-07-13T01:33:34;17.90;99.90
22996;DHT22;11664;49.774;8.650;2023-07-13T01:36:09;17.70;99.90
22996;DHT22;11664;49.774;8.650;2023-07-13T01:38:36;17.70;99.90
22996;DHT22;11664;49.774;8.650;2023-07-13T01:41:02;17.60;99.90
22996;DHT22;11664;49.774;8.650;2023-07-13T01:43:30;17.40;99.90
22996;DHT22;11664;49.774;8.650;2023-07-13T01:45:59;17.40;99.90
22996;DHT22;11664;49.774;8.650;2023-07-13T01:48:28;17.40;99.90
22996;DHT22;11664;49.774;8.650;2023-07-13T01:50:59;17.40;99.90
22996;DHT22;11664;49.774;8.650;2023-07-13T01:53:31;17.40;99.90
22996;DHT22;11664;49.774;8.650;2023-07-13T01:56:03;17.30;99.90
22996;DHT22;11664;49.774;8.650;2023-07-13T01:58:31;17.30;99.90
22996;DHT22;11664;49.774;8.650;2023-07-13T02:01:09;17.20;99.90
22996;DHT22;11664;49.774;8.650;2023-07-13T02:03:40;17.10;99.90
22996;DHT22;11664;49.774;8.650;2023-07-13T02:06:25;17.00;99.90
22996;DHT22;11664;49.774;8.650;2023-07-13T02:09:05;16.90;99.90
22996;DHT22;11664;49.774;8.650;2023-07-13T02:11:40;16.90;99.90
22996;DHT22;11664;49.774;8.650;2023-07-13T02:14:06;16.80;99.90
22996;DHT22;11664;49.774;8.650;2023-07-13T02:16:37;16.70;99.90
22996;DHT22;11664;49.774;8.650;2023-07-13T02:19:03;16.70;99.90
22996;DHT22;11664;49.774;8.650;2023-07-13T02:21:28;16.90;99.90
22996;DHT22;11664;49.774;8.650;2023-07-13T02:23:54;16.80;99.90
22996;DHT22;11664;49.774;8.650;2023-07-13T02:26:29;16.80;99.90
22996;DHT22;11664;49.774;8.650;2023-07-13T02:28:54;16.80;99.90
22996;DHT22;11664;49.774;8.650;2023-07-13T02:31:22;16.80;99.90
22996;DHT22;11664;49.774;8.650;2023-07-13T02:34:09;16.80;99.90
22996;DHT22;11664;49.774;8.650;2023-07-13T02:36:34;16.80;99.90
22996;DHT22;11664;49.774;8.650;2023-07-13T02:39:05;16.70;99.90
22996;DHT22;11664;49.774;8.650;2023-07-13T02:41:52;16.80;99.90
22996;DHT22;11664;49.774;8.650;2023-07-13T02:44:28;16.80;99.90
22996;DHT22;11664;49.774;8.650;2023-07-13T02:46:53;16.90;99.90
22996;DHT22;11664;49.774;8.650;2023-07-13T02:49:19;16.90;99.90
22996;DHT22;11664;49.774;8.650;2023-07-13T02:51:53;16.90;99.90
22996;DHT22;11664;49.774;8.650;2023-07-13T02:54:22;16.80;99.90
22996;DHT22;11664;49.774;8.650;2023-07-13T02:56:48;16.80;99.90
22996;DHT22;11664;49.774;8.650;2023-07-13T02:59:13;16.70;99.90
22996;DHT22;11664;49.774;8.650;2023-07-13T03:01:42;16.70;99.90
22996;DHT22;11664;49.774;8.650;2023-07-13T03:04:08;16.70;99.90
22996;DHT22;11664;49.774;8.650;2023-07-13T03:06:33;16.60;99.90
22996;DHT22;11664;49.774;8.650;2023-07-13T03:09:17;16.50;99.90
22996;DHT22;11664;49.774;8.650;2023-07-13T03:11:42;16.40;99.90
22996;DHT22;11664;49.774;8.650;2023-07-13T03:14:11;16.40;99.90
22996;DHT22;11664;49.774;8.650;2023-07-13T03:16:36;16.30;99.90
22996;DHT22;11664;49.774;8.650;2023-07-13T03:19:11;16.20;99.90
22996;DHT22;11664;49.774;8.650;2023-07-13T03:21:39;16.30;99.90
22996;DHT22;11664;49.774;8.650;2023-07-13T03:24:05;16.00;99.90
22996;DHT22;11664;49.774;8.650;2023-07-13T03:26:31;16.00;99.90
22996;DHT22;11664;49.774;8.650;2023-07-13T03:29:00;16.00;99.90
22996;DHT22;11664;49.774;8.650;2023-07-13T03:31:28;15.90;99.90
22996;DHT22;11664;49.774;8.650;2023-07-13T03:33:55;15.90;99.90
22996;DHT22;11664;49.774;8.650;2023-07-13T03:36:27;15.90;99.90
22996;DHT22;11664;49.774;8.650;2023-07-13T03:41:58;15.80;99.90
22996;DHT22;11664;49.774;8.650;2023-07-13T03:44:39;15.70;99.90
22996;DHT22;11664;49.774;8.650;2023-07-13T03:47:04;15.60;99.90
22996;DHT22;11664;49.774;8.650;2023-07-13T03:49:37;15.60;99.90
22996;DHT22;11664;49.774;8.650;2023-07-13T03:52:09;15.60;99.90
22996;DHT22;11664;49.774;8.650;2023-07-13T03:54:40;15.60;99.90
22996;DHT22;11664;49.774;8.650;2023-07-13T03:57:14;15.60;99.90
22996;DHT22;11664;49.774;8.650;2023-07-13T03:59:40;15.70;99.90
22996;DHT22;11664;49.774;8.650;2023-07-13T04:02:11;15.70;99.90
22996;DHT22;11664;49.774;8.650;2023-07-13T04:04:37;15.60;99.90
22996;DHT22;11664;49.774;8.650;2023-07-13T04:07:06;15.70;99.90
22996;DHT22;11664;49.774;8.650;2023-07-13T04:09:38;15.90;99.90
22996;DHT22;11664;49.774;8.650;2023-07-13T04:12:07;15.80;99.90
22996;DHT22;11664;49.774;8.650;2023-07-13T04:14:33;15.80;99.90
22996;DHT22;11664;49.774;8.650;2023-07-13T04:17:01;15.80;99.90
22996;DHT22;11664;49.774;8.650;2023-07-13T04:19:33;16.30;99.90
22996;DHT22;11664;49.774;8.650;2023-07-13T04:22:05;16.10;99.90
22996;DHT22;11664;49.774;8.650;2023-07-13T04:24:30;15.90;99.90
22996;DHT22;11664;49.774;8.650;2023-07-13T04:26:56;15.90;99.90
22996;DHT22;11664;49.774;8.650;2023-07-13T04:29:24;15.90;99.90
22996;DHT22;11664;49.774;8.650;2023-07-13T04:31:53;15.90;99.90
22996;DHT22;11664;49.774;8.650;2023-07-13T04:34:27;15.90;99.90
22996;DHT22;11664;49.774;8.650;2023-07-13T04:36:58;15.80;99.90
22996;DHT22;11664;49.774;8.650;2023-07-13T04:39:24;15.70;99.90
22996;DHT22;11664;49.774;8.650;2023-07-13T04:41:52;15.70;99.90
22996;DHT22;11664;49.774;8.650;2023-07-13T04:44:18;15.80;99.90
22996;DHT22;11664;49.774;8.650;2023-07-13T04:47:05;15.90;99.90
22996;DHT22;11664;49.774;8.650;2023-07-13T04:49:36;15.90;99.90
22996;DHT22;11664;49.774;8.650;2023-07-13T04:52:02;15.90;99.90
22996;DHT22;11664;49.774;8.650;2023-07-13T04:54:31;16.20;99.90
22996;DHT22;11664;49.774;8.650;2023-07-13T04:57:06;16.60;99.90
22996;DHT22;11664;49.774;8.650;2023-07-13T04:59:32;16.90;99.90
22996;DHT22;11664;49.774;8.650;2023-07-13T05:02:00;16.70;99.90
22996;DHT22;11664;49.774;8.650;2023-07-13T05:04:38;16.80;99.90
22996;DHT22;11664;49.774;8.650;2023-07-13T05:07:13;16.80;99.90
22996;DHT22;11664;49.774;8.650;2023-07-13T05:09:38;16.60;99.90
22996;DHT22;11664;49.774;8.650;2023-07-13T05:12:06;16.70;99.90
22996;DHT22;11664;49.774;8.650;2023-07-13T05:14:32;16.70;99.90
22996;DHT22;11664;49.774;8.650;2023-07-13T05:17:03;16.80;99.90
22996;DHT22;11664;49.774;8.650;2023-07-13T05:19:50;16.80;99.90
22996;DHT22;11664;49.774;8.650;2023-07-13T05:22:15;16.80;99.90
22996;DHT22;11664;49.774;8.650;2023-07-13T05:24:44;16.90;99.90
22996;DHT22;11664;49.774;8.650;2023-07-13T05:27:28;16.70;99.90
22996;DHT22;11664;49.774;8.650;2023-07-13T05:30:00;16.80;99.90
22996;DHT22;11664;49.774;8.650;2023-07-13T05:32:29;16.90;99.90
22996;DHT22;11664;49.774;8.650;2023-07-13T05:34:54;16.90;99.90
22996;DHT22;11664;49.774;8.650;2023-07-13T05:37:26;16.90;99.90
22996;DHT22;11664;49.774;8.650;2023-07-13T05:40:01;16.90;99.90
22996;DHT22;11664;49.774;8.650;2023-07-13T05:42:26;17.00;99.90
22996;DHT22;11664;49.774;8.650;2023-07-13T05:44:52;17.10;99.90
22996;DHT22;11664;49.774;8.650;2023-07-13T05:47:17;17.10;99.90
22996;DHT22;11664;49.774;8.650;2023-07-13T05:49:52;17.20;99.90
22996;DHT22;11664;49.774;8.650;2023-07-13T05:52:17;17.40;99.90
22996;DHT22;11664;49.774;8.650;2023-07-13T05:54:43;17.40;99.90
22996;DHT22;11664;49.774;8.650;2023-07-13T05:57:17;17.30;99.90
22996;DHT22;11664;49.774;8.650;2023-07-13T05:59:49;17.40;99.90
22996;DHT22;11664;49.774;8.650;2023-07-13T06:02:14;17.40;99.90
22996;DHT22;11664;49.774;8.650;2023-07-13T06:04:40;17.40;99.90
22996;DHT22;11664;49.774;8.650;2023-07-13T06:07:08;17.60;99.90
22996;DHT22;11664;49.774;8.650;2023-07-13T06:09:40;17.70;99.90
22996;DHT22;11664;49.774;8.650;2023-07-13T06:12:09;17.90;99.90
22996;DHT22;11664;49.774;8.650;2023-07-13T06:14:35;18.00;99.90
22996;DHT22;11664;49.774;8.650;2023-07-13T06:17:00;18.20;99.90
22996;DHT22;11664;49.774;8.650;2023-07-13T06:19:32;18.30;99.90
22996;DHT22;11664;49.774;8.650;2023-07-13T06:21:58;18.50;99.90
22996;DHT22;11664;49.774;8.650;2023-07-13T06:24:24;18.60;99.90
22996;DHT22;11664;49.774;8.650;2023-07-13T06:26:49;18.70;99.90
22996;DHT22;11664;49.774;8.650;2023-07-13T06:29:15;18.70;99.90
22996;DHT22;11664;49.774;8.650;2023-07-13T06:31:46;18.70;99.90
22996;DHT22;11664;49.774;8.650;2023-07-13T06:34:12;18.80;99.90
22996;DHT22;11664;49.774;8.650;2023-07-13T06:36:37;18.80;99.90
22996;DHT22;11664;49.774;8.650;2023-07-13T06:39:04;18.90;99.90
22996;DHT22;11664;49.774;8.650;2023-07-13T06:41:29;19.00;99.90
22996;DHT22;11664;49.774;8.650;2023-07-13T06:43:56;19.10;99.90
22996;DHT22;11664;49.774;8.650;2023-07-13T06:46:29;19.30;99.90
22996;DHT22;11664;49.774;8.650;2023-07-13T06:48:55;19.30;99.90
22996;DHT22;11664;49.774;8.650;2023-07-13T06:51:21;19.20;99.90
22996;DHT22;11664;49.774;8.650;2023-07-13T06:53:50;19.20;99.90
22996;DHT22;11664;49.774;8.650;2023-07-13T06:56:15;19.40;99.90
22996;DHT22;11664;49.774;8.650;2023-07-13T06:58:44;19.40;99.90
22996;DHT22;11664;49.774;8.650;2023-07-13T07:01:09;19.50;99.90
22996;DHT22;11664;49.774;8.650;2023-07-13T07:03:35;19.70;99.90
22996;DHT22;11664;49.774;8.650;2023-07-13T07:06:05;19.90;99.90
22996;DHT22;11664;49.774;8.650;2023-07-13T07:08:40;20.00;99.90
22996;DHT22;11664;49.774;8.650;2023-07-13T07:11:13;19.90;99.90
22996;DHT22;11664;49.774;8.650;2023-07-13T07:13:45;20.00;99.90
22996;DHT22;11664;49.774;8.650;2023-07-13T07:16:14;20.20;99.90
22996;DHT22;11664;49.774;8.650;2023-07-13T07:18:46;20.20;99.90
22996;DHT22;11664;49.774;8.650;2023-07-13T07:21:18;20.40;99.90
22996;DHT22;11664;49.774;8.650;2023-07-13T07:23:43;20.40;99.90
22996;DHT22;11664;49.774;8.650;2023-07-13T07:26:09;20.30;99.90
22996;DHT22;11664;49.774;8.650;2023-07-13T07:28:36;20.30;99.90
22996;DHT22;11664;49.774;8.650;2023-07-13T07:31:04;20.30;99.90
22996;DHT22;11664;49.774;8.650;2023-07-13T07:33:33;20.20;99.90
22996;DHT22;11664;49.774;8.650;2023-07-13T07:36:06;20.30;99.90
22996;DHT22;11664;49.774;8.650;2023-07-13T07:38:31;20.70;99.90
22996;DHT22;11664;49.774;8.650;2023-07-13T07:40:57;21.10;99.90
22996;DHT22;11664;49.774;8.650;2023-07-13T07:43:23;21.20;99.90
22996;DHT22;11664;49.774;8.650;2023-07-13T07:46:01;21.30;99.90
22996;DHT22;11664;49.774;8.650;2023-07-13T07:48:27;21.50;99.90
22996;DHT22;11664;49.774;8.650;2023-07-13T07:50:52;21.60;99.90
22996;DHT22;11664;49.774;8.650;2023-07-13T07:53:18;21.80;99.90
22996;DHT22;11664;49.774;8.650;2023-07-13T07:55:44;21.90;99.90
22996;DHT22;11664;49.774;8.650;2023-07-13T07:58:10;21.70;99.90
22996;DHT22;11664;49.774;8.650;2023-07-13T08:00:45;21.50;99.90
22996;DHT22;11664;49.774;8.650;2023-07-13T08:03:13;21.40;99.90
22996;DHT22;11664;49.774;8.650;2023-07-13T08:05:45;22.00;99.90
22996;DHT22;11664;49.774;8.650;2023-07-13T08:08:11;21.90;99.90
22996;DHT22;11664;49.774;8.650;2023-07-13T08:10:36;21.90;99.90
22996;DHT22;11664;49.774;8.650;2023-07-13T08:13:08;21.70;99.90
22996;DHT22;11664;49.774;8.650;2023-07-13T08:15:34;21.60;99.90
22996;DHT22;11664;49.774;8.650;2023-07-13T08:17:59;21.40;99.90
22996;DHT22;11664;49.774;8.650;2023-07-13T08:20:25;21.60;99.90
22996;DHT22;11664;49.774;8.650;2023-07-13T08:22:58;21.70;99.90
22996;DHT22;11664;49.774;8.650;2023-07-13T08:25:23;21.90;99.90
22996;DHT22;11664;49.774;8.650;2023-07-13T08:27:49;21.90;99.90
22996;DHT22;11664;49.774;8.650;2023-07-13T08:30:14;22.20;99.90
22996;DHT22;11664;49.774;8.650;2023-07-13T08:32:43;22.10;99.90
22996;DHT22;11664;49.774;8.650;2023-07-13T08:35:17;22.20;99.90
22996;DHT22;11664;49.774;8.650;2023-07-13T08:37:43;22.10;99.90
22996;DHT22;11664;49.774;8.650;2023-07-13T08:40:15;22.40;99.90
22996;DHT22;11664;49.774;8.650;2023-07-13T08:42:46;22.30;99.90
22996;DHT22;11664;49.774;8.650;2023-07-13T08:45:26;22.10;99.90
22996;DHT22;11664;49.774;8.650;2023-07-13T08:48:26;22.10;99.90
22996;DHT22;11664;49.774;8.650;2023-07-13T08:53:59;22.60;98.70
22996;DHT22;11664;49.774;8.650;2023-07-13T08:56:28;22.70;98.50
22996;DHT22;11664;49.774;8.650;2023-07-13T08:58:57;22.80;98.40
22996;DHT22;11664;49.774;8.650;2023-07-13T09:04:22;22.60;98.50
22996;DHT22;11664;49.774;8.650;2023-07-13T09:09:55;22.50;97.90
22996;DHT22;11664;49.774;8.650;2023-07-13T09:18:00;23.00;97.00
22996;DHT22;11664;49.774;8.650;2023-07-13T09:20:40;22.90;97.10
22996;DHT22;11664;49.774;8.650;2023-07-13T09:23:20;23.10;96.80
22996;DHT22;11664;49.774;8.650;2023-07-13T09:26:13;23.20;96.60
22996;DHT22;11664;49.774;8.650;2023-07-13T09:28:43;23.40;96.20
22996;DHT22;11664;49.774;8.650;2023-07-13T09:31:20;23.30;95.60
22996;DHT22;11664;49.774;8.650;2023-07-13T09:33:48;23.60;94.90
22996;DHT22;11664;49.774;8.650;2023-07-13T09:36:33;23.80;95.30
22996;DHT22;11664;49.774;8.650;2023-07-13T09:42:16;23.20;94.20
22996;DHT22;11664;49.774;8.650;2023-07-13T09:45:01;23.60;93.70
22996;DHT22;11664;49.774;8.650;2023-07-13T09:47:39;23.90;93.00
22996;DHT22;11664;49.774;8.650;2023-07-13T09:50:15;23.90;92.60
22996;DHT22;11664;49.774;8.650;2023-07-13T09:52:54;24.00;92.90
22996;DHT22;11664;49.774;8.650;2023-07-13T09:55:39;23.90;92.40
22996;DHT22;11664;49.774;8.650;2023-07-13T09:58:15;23.50;92.90
22996;DHT22;11664;49.774;8.650;2023-07-13T10:00:54;23.80;93.50
22996;DHT22;11664;49.774;8.650;2023-07-13T10:03:32;23.50;92.50
22996;DHT22;11664;49.774;8.650;2023-07-13T10:06:20;23.20;92.90
22996;DHT22;11664;49.774;8.650;2023-07-13T10:08:50;23.80;92.00
22996;DHT22;11664;49.774;8.650;2023-07-13T10:11:29;23.80;91.60
22996;DHT22;11664;49.774;8.650;2023-07-13T10:13:58;24.10;92.50
22996;DHT22;11664;49.774;8.650;2023-07-13T10:16:27;24.90;90.70
22996;DHT22;11664;49.774;8.650;2023-07-13T10:18:59;24.70;89.70
22996;DHT22;11664;49.774;8.650;2023-07-13T10:21:32;24.70;89.00
22996;DHT22;11664;49.774;8.650;2023-07-13T10:24:10;23.90;90.50
22996;DHT22;11664;49.774;8.650;2023-07-13T10:26:39;24.40;90.60
22996;DHT22;11664;49.774;8.650;2023-07-13T10:29:12;24.10;88.00
22996;DHT22;11664;49.774;8.650;2023-07-13T10:31:40;24.10;87.70
22996;DHT22;11664;49.774;8.650;2023-07-13T10:34:26;23.70;88.60
22996;DHT22;11664;49.774;8.650;2023-07-13T10:36:52;23.70;89.00
22996;DHT22;11664;49.774;8.650;2023-07-13T10:39:26;23.80;89.10
22996;DHT22;11664;49.774;8.650;2023-07-13T10:41:57;23.40;88.80
22996;DHT22;11664;49.774;8.650;2023-07-13T10:44:26;23.60;90.10
22996;DHT22;11664;49.774;8.650;2023-07-13T10:47:02;23.70;90.20
22996;DHT22;11664;49.774;8.650;2023-07-13T10:49:32;23.80;90.00
22996;DHT22;11664;49.774;8.650;2023-07-13T10:52:04;24.00;89.60
22996;DHT22;11664;49.774;8.650;2023-07-13T10:54:34;24.40;88.00
22996;DHT22;11664;49.774;8.650;2023-07-13T10:57:17;25.00;87.50
22996;DHT22;11664;49.774;8.650;2023-07-13T11:00:31;25.10;85.40
22996;DHT22;11664;49.774;8.650;2023-07-13T11:02:37;25.00;84.80
22996;DHT22;11664;49.774;8.650;2023-07-13T11:05:30;25.00;84.50
22996;DHT22;11664;49.774;8.650;2023-07-13T11:08:34;25.00;85.90
22996;DHT22;11664;49.774;8.650;2023-07-13T11:14:01;25.80;82.40
22996;DHT22;11664;49.774;8.650;2023-07-13T11:16:44;25.80;79.50
22996;DHT22;11664;49.774;8.650;2023-07-13T11:24:29;24.10;83.80
22996;DHT22;11664;49.774;8.650;2023-07-13T11:26:58;24.20;85.90
22996;DHT22;11664;49.774;8.650;2023-07-13T11:29:37;23.90;85.40
22996;DHT22;11664;49.774;8.650;2023-07-13T11:32:25;23.90;86.70
22996;DHT22;11664;49.774;8.650;2023-07-13T11:35:00;24.40;86.60
22996;DHT22;11664;49.774;8.650;2023-07-13T11:37:30;24.50;85.70
22996;DHT22;11664;49.774;8.650;2023-07-13T11:39:56;24.40;85.50
22996;DHT22;11664;49.774;8.650;2023-07-13T11:42:24;24.80;84.60
22996;DHT22;11664;49.774;8.650;2023-07-13T11:44:53;25.90;80.00
22996;DHT22;11664;49.774;8.650;2023-07-13T11:47:23;25.20;80.90
22996;DHT22;11664;49.774;8.650;2023-07-13T11:49:55;25.40;81.00
22996;DHT22;11664;49.774;8.650;2023-07-13T11:52:32;24.60;80.80
22996;DHT22;11664;49.774;8.650;2023-07-13T11:55:04;24.70;81.90
22996;DHT22;11664;49.774;8.650;2023-07-13T11:57:44;25.00;81.10
22996;DHT22;11664;49.774;8.650;2023-07-13T12:00:27;25.10;81.50
22996;DHT22;11664;49.774;8.650;2023-07-13T12:02:58;25.40;80.40
22996;DHT22;11664;49.774;8.650;2023-07-13T12:05:25;25.10;78.40
22996;DHT22;11664;49.774;8.650;2023-07-13T12:07:57;25.10;79.90
22996;DHT22;11664;49.774;8.650;2023-07-13T12:10:27;25.40;77.50
22996;DHT22;11664;49.774;8.650;2023-07-13T12:13:00;25.60;79.40
22996;DHT22;11664;49.774;8.650;2023-07-13T12:15:41;25.10;78.20
22996;DHT22;11664;49.774;8.650;2023-07-13T12:18:14;25.00;77.70
22996;DHT22;11664;49.774;8.650;2023-07-13T12:20:40;25.40;77.90
22996;DHT22;11664;49.774;8.650;2023-07-13T12:23:29;25.30;77.30
22996;DHT22;11664;49.774;8.650;2023-07-13T12:25:55;25.50;77.70
22996;DHT22;11664;49.774;8.650;2023-07-13T12:28:40;25.70;77.20
22996;DHT22;11664;49.774;8.650;2023-07-13T12:31:42;26.10;75.80
22996;DHT22;11664;49.774;8.650;2023-07-13T12:34:15;27.30;76.20
22996;DHT22;11664;49.774;8.650;2023-07-13T12:36:53;26.60;74.50
22996;DHT22;11664;49.774;8.650;2023-07-13T12:39:45;26.30;72.20
22996;DHT22;11664;49.774;8.650;2023-07-13T12:42:34;26.30;73.00
22996;DHT22;11664;49.774;8.650;2023-07-13T12:45:22;26.30;72.50
22996;DHT22;11664;49.774;8.650;2023-07-13T12:47:57;26.00;73.00
22996;DHT22;11664;49.774;8.650;2023-07-13T12:50:46;25.70;74.70
22996;DHT22;11664;49.774;8.650;2023-07-13T12:53:18;26.80;74.00
22996;DHT22;11664;49.774;8.650;2023-07-13T12:56:04;26.40;73.10
22996;DHT22;11664;49.774;8.650;2023-07-13T12:58:40;25.80;75.20
22996;DHT22;11664;49.774;8.650;2023-07-13T13:01:15;25.60;74.80
22996;DHT22;11664;49.774;8.650;2023-07-13T13:03:47;25.20;75.90
22996;DHT22;11664;49.774;8.650;2023-07-13T13:06:23;24.60;76.40
22996;DHT22;11664;49.774;8.650;2023-07-13T13:08:54;24.60;77.60
22996;DHT22;11664;49.774;8.650;2023-07-13T13:11:21;24.80;78.00
22996;DHT22;11664;49.774;8.650;2023-07-13T13:13:48;24.70;78.10
22996;DHT22;11664;49.774;8.650;2023-07-13T13:16:21;24.70;78.90
22996;DHT22;11664;49.774;8.650;2023-07-13T13:18:48;24.70;78.40
22996;DHT22;11664;49.774;8.650;2023-07-13T13:21:17;24.90;77.60
22996;DHT22;11664;49.774;8.650;2023-07-13T13:23:46;24.80;77.60
22996;DHT22;11664;49.774;8.650;2023-07-13T13:26:14;25.00;78.00
22996;DHT22;11664;49.774;8.650;2023-07-13T13:28:44;25.30;78.10
22996;DHT22;11664;49.774;8.650;2023-07-13T13:31:17;25.10;78.00
22996;DHT22;11664;49.774;8.650;2023-07-13T13:33:48;25.40;77.50
22996;DHT22;11664;49.774;8.650;2023-07-13T13:36:16;25.00;77.20
22996;DHT22;11664;49.774;8.650;2023-07-13T13:38:46;24.90;77.20
22996;DHT22;11664;49.774;8.650;2023-07-13T13:41:13;25.30;77.90
22996;DHT22;11664;49.774;8.650;2023-07-13T13:43:43;25.40;77.60
22996;DHT22;11664;49.774;8.650;2023-07-13T13:46:20;25.50;77.30
22996;DHT22;11664;49.774;8.650;2023-07-13T13:48:47;25.40;77.80
22996;DHT22;11664;49.774;8.650;2023-07-13T13:51:24;25.20;77.10
22996;DHT22;11664;49.774;8.650;2023-07-13T13:53:53;25.00;78.30
22996;DHT22;11664;49.774;8.650;2023-07-13T13:56:19;25.00;79.50
22996;DHT22;11664;49.774;8.650;2023-07-13T13:58:45;25.00;77.80
22996;DHT22;11664;49.774;8.650;2023-07-13T14:01:19;24.80;78.30
22996;DHT22;11664;49.774;8.650;2023-07-13T14:03:46;24.60;78.60
22996;DHT22;11664;49.774;8.650;2023-07-13T14:06:14;24.70;78.60
22996;DHT22;11664;49.774;8.650;2023-07-13T14:08:44;24.70;79.50
22996;DHT22;11664;49.774;8.650;2023-07-13T14:11:15;24.70;78.90
22996;DHT22;11664;49.774;8.650;2023-07-13T14:13:58;24.60;78.30
22996;DHT22;11664;49.774;8.650;2023-07-13T14:16:28;25.00;79.30
22996;DHT22;11664;49.774;8.650;2023-07-13T14:18:55;24.90;78.40
22996;DHT22;11664;49.774;8.650;2023-07-13T14:21:23;24.90;77.60
22996;DHT22;11664;49.774;8.650;2023-07-13T14:23:58;25.10;78.50
22996;DHT22;11664;49.774;8.650;2023-07-13T14:26:36;24.90;77.60
22996;DHT22;11664;49.774;8.650;2023-07-13T14:29:18;24.80;78.80
22996;DHT22;11664;49.774;8.650;2023-07-13T14:31:51;25.10;78.20
22996;DHT22;11664;49.774;8.650;2023-07-13T14:34:16;24.90;77.80
22996;DHT22;11664;49.774;8.650;2023-07-13T14:36:49;24.80;77.60
22996;DHT22;11664;49.774;8.650;2023-07-13T14:39:23;24.60;77.20
22996;DHT22;11664;49.774;8.650;2023-07-13T14:41:51;24.70;78.50
22996;DHT22;11664;49.774;8.650;2023-07-13T14:44:40;24.90;77.80
22996;DHT22;11664;49.774;8.650;2023-07-13T14:47:07;24.90;76.80
22996;DHT22;11664;49.774;8.650;2023-07-13T14:49:43;25.00;78.20
22996;DHT22;11664;49.774;8.650;2023-07-13T14:52:18;25.00;77.40
22996;DHT22;11664;49.774;8.650;2023-07-13T14:54:45;25.30;76.60
22996;DHT22;11664;49.774;8.650;2023-07-13T14:57:13;25.50;76.40
22996;DHT22;11664;49.774;8.650;2023-07-13T14:59:39;25.40;75.40
22996;DHT22;11664;49.774;8.650;2023-07-13T15:02:33;25.80;74.80
22996;DHT22;11664;49.774;8.650;2023-07-13T15:05:27;25.90;73.90
22996;DHT22;11664;49.774;8.650;2023-07-13T15:07:52;25.60;75.80
22996;DHT22;11664;49.774;8.650;2023-07-13T15:10:21;25.40;76.90
22996;DHT22;11664;49.774;8.650;2023-07-13T15:12:58;25.40;75.70
22996;DHT22;11664;49.774;8.650;2023-07-13T15:15:34;25.30;74.90
22996;DHT22;11664;49.774;8.650;2023-07-13T15:18:00;24.90;75.60
22996;DHT22;11664;49.774;8.650;2023-07-13T15:20:35;25.20;75.80
22996;DHT22;11664;49.774;8.650;2023-07-13T15:23:01;24.90;75.10
22996;DHT22;11664;49.774;8.650;2023-07-13T15:25:36;25.20;74.70
22996;DHT22;11664;49.774;8.650;2023-07-13T15:28:08;25.10;73.70
22996;DHT22;11664;49.774;8.650;2023-07-13T15:30:41;25.10;75.00
22996;DHT22;11664;49.774;8.650;2023-07-13T15:35:41;25.40;74.00
22996;DHT22;11664;49.774;8.650;2023-07-13T15:38:16;25.20;74.30
22996;DHT22;11664;49.774;8.650;2023-07-13T15:40:49;25.40;74.00
22996;DHT22;11664;49.774;8.650;2023-07-13T15:43:16;25.30;73.80
22996;DHT22;11664;49.774;8.650;2023-07-13T15:45:49;26.70;72.90
22996;DHT22;11664;49.774;8.650;2023-07-13T15:48:24;27.30;70.00
22996;DHT22;11664;49.774;8.650;2023-07-13T15:51:05;26.10;70.90
22996;DHT22;11664;49.774;8.650;2023-07-13T15:53:38;26.70;71.90
22996;DHT22;11664;49.774;8.650;2023-07-13T15:56:22;26.80;71.20
22996;DHT22;11664;49.774;8.650;2023-07-13T15:58:49;25.80;72.00
22996;DHT22;11664;49.774;8.650;2023-07-13T16:01:16;25.40;73.90
22996;DHT22;11664;49.774;8.650;2023-07-13T16:03:42;26.40;72.10
22996;DHT22;11664;49.774;8.650;2023-07-13T16:06:16;26.70;70.60
22996;DHT22;11664;49.774;8.650;2023-07-13T16:08:44;26.20;71.80
22996;DHT22;11664;49.774;8.650;2023-07-13T16:11:34;25.80;72.40
22996;DHT22;11664;49.774;8.650;2023-07-13T16:14:03;25.40;74.70
22996;DHT22;11664;49.774;8.650;2023-07-13T16:19:24;24.80;75.10
22996;DHT22;11664;49.774;8.650;2023-07-13T16:21:57;26.30;72.10
22996;DHT22;11664;49.774;8.650;2023-07-13T16:24:25;26.00;70.20
22996;DHT22;11664;49.774;8.650;2023-07-13T16:26:58;26.00;71.30
22996;DHT22;11664;49.774;8.650;2023-07-13T16:29:30;26.70;69.90
22996;DHT22;11664;49.774;8.650;2023-07-13T16:32:11;27.70;68.10
22996;DHT22;11664;49.774;8.650;2023-07-13T16:34:38;28.50;68.00
22996;DHT22;11664;49.774;8.650;2023-07-13T16:37:28;27.90;71.60